Time;durP1;ratioP1;P1;durP2;ratioP2;P2;SDS_P1;SDS_P2;PMS_P1;PMS_P2;Temp;Humidity;BMP_temperature;BMP_pressure;BME280_temperature;BME280_humidity;BME280_pressure;Samples;Min_cycle;Max_cycle;Signal;HPM_P1;HPM_P2
2023/07/06 00:00:37;;;;;;;;;6.00;5.67;;;;;18.83;100.00;101451.19;5038547;28;45422;-74
2023/07/06 00:03:03;;;;;;;;;5.33;5.33;;;;;18.83;100.00;101463.69;5036855;28;47456;-75
2023/07/06 00:05:29;;;;;;;;;7.00;6.00;;;;;18.78;100.00;101454.84;5037469;28;45497;-75
2023/07/06 00:07:56;;;;;;;;;9.00;6.33;;;;;18.77;100.00;101459.31;5038128;28;45359;-75
2023/07/06 00:10:22;;;;;;;;;6.00;6.00;;;;;18.78;100.00;101462.88;5038133;28;45213;-75
2023/07/06 00:12:47;;;;;;;;;9.00;6.00;;;;;18.74;100.00;101459.34;5037698;28;47570;-75
2023/07/06 00:15:13;;;;;;;;;5.33;5.00;;;;;18.73;100.00;101459.38;5037932;28;45255;-75
2023/07/06 00:17:38;;;;;;;;;6.00;4.67;;;;;18.67;100.00;101457.63;5036907;28;64650;-75
2023/07/06 00:20:07;;;;;;;;;9.33;5.00;;;;;18.67;100.00;101462.97;5037806;28;45613;-74
2023/07/06 00:22:32;;;;;;;;;8.00;5.00;;;;;18.66;100.00;101465.66;5038012;28;47515;-75
2023/07/06 00:24:57;;;;;;;;;5.00;5.00;;;;;18.66;100.00;101474.56;5036263;28;71225;-75
2023/07/06 00:27:23;;;;;;;;;3.67;3.33;;;;;18.63;100.00;101466.56;5038186;28;45364;-75
2023/07/06 00:30:08;;;;;;;;;5.00;5.00;;;;;18.59;100.00;101470.22;5036737;28;63070;-75
2023/07/06 00:32:33;;;;;;;;;4.00;4.00;;;;;18.56;100.00;101465.78;5031288;28;46818;-75
2023/07/06 00:35:00;;;;;;;;;5.33;4.00;;;;;18.54;100.00;101464.03;5036351;28;67874;-75
2023/07/06 00:37:26;;;;;;;;;7.00;5.00;;;;;18.52;100.00;101468.50;5033319;28;45296;-75
2023/07/06 00:39:52;;;;;;;;;6.00;4.67;;;;;18.51;100.00;101469.41;5037686;28;45551;-75
2023/07/06 00:42:20;;;;;;;;;6.00;6.00;;;;;18.49;100.00;101471.22;5037358;28;46935;-75
2023/07/06 00:44:57;;;;;;;;;6.67;4.67;;;;;18.46;100.00;101476.59;5037245;28;45243;-75
2023/07/06 00:47:33;;;;;;;;;3.00;3.00;;;;;18.44;100.00;101471.28;5036964;28;45391;-74
2023/07/06 00:50:02;;;;;;;;;5.67;4.33;;;;;18.43;100.00;101473.94;5037132;28;45285;-75
2023/07/06 00:52:28;;;;;;;;;4.00;4.00;;;;;18.42;100.00;101475.72;5036214;28;46607;-74
2023/07/06 00:54:53;;;;;;;;;5.67;5.67;;;;;18.40;100.00;101474.00;5036262;28;69120;-74
2023/07/06 00:57:19;;;;;;;;;4.33;4.33;;;;;18.38;100.00;101476.69;5037176;28;45444;-74
2023/07/06 00:59:45;;;;;;;;;6.00;4.00;;;;;18.36;100.00;101470.47;5036695;28;61794;-75
2023/07/06 01:02:14;;;;;;;;;6.00;4.00;;;;;18.33;100.00;101478.53;5036179;28;46599;-75
2023/07/06 01:04:39;;;;;;;;;6.00;5.00;;;;;18.33;100.00;101484.75;5047942;28;45339;-75
2023/07/06 01:07:06;;;;;;;;;9.00;6.00;;;;;18.31;100.00;101481.19;5036875;28;45294;-75
2023/07/06 01:09:32;;;;;;;;;4.33;4.33;;;;;18.30;100.00;101483.91;5030787;28;45509;-74
2023/07/06 01:11:58;;;;;;;;;7.00;5.67;;;;;18.26;100.00;101480.34;5035666;28;47264;-74
2023/07/06 01:14:26;;;;;;;;;6.00;4.33;;;;;18.25;100.00;101483.94;5036822;28;45352;-74
2023/07/06 01:17:15;;;;;;;;;6.67;5.00;;;;;18.23;100.00;101485.75;5037105;28;45474;-74
2023/07/06 01:19:46;;;;;;;;;4.00;4.00;;;;;18.23;100.00;101483.09;5035127;28;45388;-74
2023/07/06 01:22:30;;;;;;;;;4.67;4.67;;;;;18.20;100.00;101483.09;5037064;28;46423;-74
2023/07/06 01:25:10;;;;;;;;;6.67;5.00;;;;;18.16;100.00;101481.34;5031519;28;45293;-74
2023/07/06 01:27:45;;;;;;;;;6.67;5.00;;;;;18.16;100.00;101488.47;5036879;28;45285;-74
2023/07/06 01:30:33;;;;;;;;;6.00;4.67;;;;;18.14;100.00;101479.59;5036384;28;45594;-74
2023/07/06 01:33:03;;;;;;;;;7.00;5.00;;;;;18.08;100.00;101480.56;5036442;28;47193;-74
2023/07/06 01:35:42;;;;;;;;;6.00;5.33;;;;;18.05;100.00;101473.44;5035133;28;45368;-75
2023/07/06 01:38:08;;;;;;;;;4.00;4.00;;;;;18.04;100.00;101478.81;5036534;28;45301;-75
2023/07/06 01:40:34;;;;;;;;;5.00;5.00;;;;;18.02;100.00;101475.28;5035671;28;45354;-75
2023/07/06 01:42:59;;;;;;;;;5.00;5.00;;;;;18.00;100.00;101471.72;5035698;28;47628;-74
2023/07/06 01:45:24;;;;;;;;;5.00;5.00;;;;;17.97;100.00;101469.97;5034975;28;71532;-75
2023/07/06 01:47:56;;;;;;;;;6.00;6.00;;;;;17.95;100.00;101473.53;5036398;28;45370;-75
2023/07/06 01:50:27;;;;;;;;;5.67;5.67;;;;;17.91;100.00;101469.16;5026730;28;45424;-75
2023/07/06 01:52:56;;;;;;;;;4.33;4.33;;;;;17.89;100.00;101469.13;5034960;28;47503;-74
2023/07/06 01:55:32;;;;;;;;;7.00;5.00;;;;;17.88;100.00;101463.81;5036345;28;45504;-75
2023/07/06 01:58:07;;;;;;;;;8.00;5.67;;;;;17.82;100.00;101459.41;5027626;28;45352;-75
2023/07/06 02:00:35;;;;;;;;;7.33;6.33;;;;;17.85;100.00;101470.09;5030664;28;45727;-75
2023/07/06 02:03:01;;;;;;;;;8.00;6.67;;;;;17.80;100.00;101459.44;5033796;28;47525;-74
2023/07/06 02:05:27;;;;;;;;;8.00;4.00;;;;;17.80;100.00;101461.22;5034865;28;45389;-74
2023/07/06 02:07:52;;;;;;;;;10.33;6.00;;;;;17.77;100.00;101461.25;5034313;28;63656;-74
2023/07/06 02:10:19;;;;;;;;;5.00;5.00;;;;;17.74;100.00;101459.50;5034214;28;64263;-75
2023/07/06 02:12:47;;;;;;;;;9.00;6.00;;;;;17.73;100.00;101455.03;5035725;28;46586;-75
2023/07/06 02:15:21;;;;;;;;;8.67;6.00;;;;;17.74;100.00;101456.81;5036412;28;45225;-75
2023/07/06 02:17:48;;;;;;;;;7.33;6.33;;;;;17.72;100.00;101458.59;5036251;28;45865;-74
2023/07/06 02:20:16;;;;;;;;;7.33;6.67;;;;;17.70;100.00;101457.72;5036481;28;45371;-74
2023/07/06 02:22:43;;;;;;;;;7.33;5.33;;;;;17.66;100.00;101452.41;5035856;28;47410;-75
2023/07/06 02:25:08;;;;;;;;;8.00;7.00;;;;;17.65;100.00;101456.84;5036100;28;45410;-75
2023/07/06 02:27:34;;;;;;;;;6.67;6.67;;;;;17.63;100.00;101461.34;5035953;28;45304;-75
2023/07/06 02:29:59;;;;;;;;;6.00;5.00;;;;;17.61;100.00;101455.09;5036137;28;45276;-74
2023/07/06 02:32:26;;;;;;;;;6.33;5.33;;;;;17.60;100.00;101457.78;5035125;28;65270;-74
2023/07/06 02:34:52;;;;;;;;;7.67;6.00;;;;;17.59;100.00;101456.91;5035801;28;45418;-75
2023/07/06 02:37:17;;;;;;;;;7.00;6.00;;;;;17.53;100.00;101456.97;5035972;28;45454;-75
2023/07/06 02:39:43;;;;;;;;;7.33;7.00;;;;;17.50;100.00;101463.19;5035756;28;45427;-74
2023/07/06 02:42:08;;;;;;;;;5.33;5.00;;;;;17.50;100.00;101456.97;5035312;28;68425;-75
2023/07/06 02:44:33;;;;;;;;;7.00;6.00;;;;;17.44;100.00;101465.03;5035856;28;45343;-75
2023/07/06 02:46:59;;;;;;;;;7.67;6.00;;;;;17.45;100.00;101461.47;5035940;28;45200;-76
2023/07/06 02:49:24;;;;;;;;;5.00;5.00;;;;;17.45;100.00;101464.13;5035354;28;57611;-75
2023/07/06 02:51:49;;;;;;;;;7.00;5.67;;;;;17.46;100.00;101472.13;5034532;28;65040;-75
2023/07/06 02:54:15;;;;;;;;;9.00;7.00;;;;;17.43;100.00;101466.81;5035103;28;64169;-75
2023/07/06 02:56:41;;;;;;;;;8.33;6.33;;;;;17.46;100.00;101472.13;5035607;28;45363;-75
2023/07/06 02:59:08;;;;;;;;;6.00;6.00;;;;;17.41;100.00;101467.72;5033691;28;45478;-75
2023/07/06 03:01:34;;;;;;;;;7.00;5.67;;;;;17.43;100.00;101477.50;5035302;28;46650;-76
2023/07/06 03:03:59;;;;;;;;;7.67;7.00;;;;;17.41;100.00;101473.03;5034887;28;45307;-75
2023/07/06 03:06:24;;;;;;;;;6.67;6.67;;;;;17.40;100.00;101472.16;5034692;28;62676;-76
2023/07/06 03:08:50;;;;;;;;;8.33;5.67;;;;;17.40;100.00;101469.50;5034740;28;62675;-75
2023/07/06 03:11:17;;;;;;;;;8.00;6.00;;;;;17.37;100.00;101474.88;5038777;28;47461;-75
2023/07/06 03:13:42;;;;;;;;;8.33;6.00;;;;;17.36;100.00;101464.19;5033419;28;45543;-75
2023/07/06 03:16:08;;;;;;;;;9.33;6.33;;;;;17.36;100.00;101478.41;5038318;28;62552;-75
2023/07/06 03:18:34;;;;;;;;;9.67;6.67;;;;;17.32;100.00;101470.47;5039238;28;45427;-74
2023/07/06 03:21:00;;;;;;;;;8.00;6.00;;;;;17.34;100.00;101482.88;5038631;28;46720;-75
2023/07/06 03:23:27;;;;;;;;;7.00;6.00;;;;;17.32;100.00;101476.69;5037354;28;45527;-74
2023/07/06 03:25:53;;;;;;;;;9.00;5.00;;;;;17.27;100.00;101476.72;5038489;28;45528;-75
2023/07/06 03:28:20;;;;;;;;;7.33;6.33;;;;;17.24;100.00;101465.16;5038461;28;45376;-74
2023/07/06 03:30:45;;;;;;;;;9.00;6.33;;;;;17.24;100.00;101478.50;5033712;28;46630;-75
2023/07/06 03:33:11;;;;;;;;;9.00;8.00;;;;;17.21;100.00;101476.75;5037613;28;49072;-75
2023/07/06 03:35:40;;;;;;;;;9.00;7.00;;;;;17.18;100.00;101466.09;5038185;28;45493;-75
2023/07/06 03:38:06;;;;;;;;;10.00;7.67;;;;;17.16;100.00;101477.69;5038451;28;45217;-75
2023/07/06 03:40:31;;;;;;;;;9.00;6.33;;;;;17.14;100.00;101475.00;5037773;28;47494;-75
2023/07/06 03:42:58;;;;;;;;;6.33;5.00;;;;;17.14;100.00;101479.44;5038296;28;45396;-75
2023/07/06 03:45:24;;;;;;;;;7.33;5.67;;;;;17.11;100.00;101483.03;5038440;28;45398;-75
2023/07/06 03:47:50;;;;;;;;;6.00;6.00;;;;;17.09;100.00;101475.91;5035568;28;45498;-75
2023/07/06 03:50:17;;;;;;;;;7.67;6.67;;;;;17.06;100.00;101474.16;5038206;28;47475;-75
2023/07/06 03:52:44;;;;;;;;;9.67;5.33;;;;;17.04;100.00;101481.28;5034369;28;45464;-75
2023/07/06 03:55:16;;;;;;;;;6.00;6.00;;;;;17.01;100.00;101484.88;5038413;28;45503;-75
2023/07/06 03:57:43;;;;;;;;;10.33;8.00;;;;;17.00;100.00;101485.75;5038140;28;45420;-75
2023/07/06 04:00:18;;;;;;;;;7.33;7.33;;;;;16.97;100.00;101477.75;5038309;28;47532;-76
2023/07/06 04:02:43;;;;;;;;;7.67;5.33;;;;;16.96;100.00;101475.09;5036623;28;45555;-75
2023/07/06 04:05:09;;;;;;;;;11.67;9.00;;;;;16.95;100.00;101478.69;5038461;28;45184;-75
2023/07/06 04:07:34;;;;;;;;;8.00;8.00;;;;;16.94;100.00;101482.25;5037228;28;59624;-75
2023/07/06 04:10:00;;;;;;;;;12.00;9.00;;;;;16.92;100.00;101492.00;5037629;28;46668;-75
2023/07/06 04:12:25;;;;;;;;;9.00;8.00;;;;;16.91;100.00;101484.91;5051595;28;45380;-75
2023/07/06 04:14:51;;;;;;;;;8.00;8.00;;;;;16.91;100.00;101487.59;5037975;28;45650;-75
2023/07/06 04:17:16;;;;;;;;;6.67;5.33;;;;;16.88;100.00;101484.91;5036489;28;63886;-75
2023/07/06 04:19:42;;;;;;;;;7.00;7.00;;;;;16.90;100.00;101496.47;5040408;28;46633;-75
2023/07/06 04:22:07;;;;;;;;;7.33;6.67;;;;;16.87;100.00;101486.69;5035363;28;45936;-75
2023/07/06 04:24:34;;;;;;;;;9.00;7.33;;;;;16.87;100.00;101480.47;5037262;28;58843;-75
2023/07/06 04:27:00;;;;;;;;;7.33;5.33;;;;;16.89;100.00;101492.94;5037684;28;45592;-76
2023/07/06 04:29:26;;;;;;;;;8.67;6.00;;;;;16.89;100.00;101486.72;5037593;28;46551;-75
2023/07/06 04:31:55;;;;;;;;;7.33;7.33;;;;;16.89;100.00;101484.03;5037498;28;45280;-75
2023/07/06 04:34:21;;;;;;;;;10.33;6.67;;;;;16.90;100.00;101480.47;5037563;28;45196;-75
2023/07/06 04:36:47;;;;;;;;;6.00;6.00;;;;;16.91;100.00;101488.47;5037955;28;45382;-75
2023/07/06 04:39:12;;;;;;;;;6.00;6.00;;;;;16.91;100.00;101483.13;5037352;28;47530;-75
2023/07/06 04:41:37;;;;;;;;;9.00;9.00;;;;;16.93;100.00;101494.66;5037544;28;45267;-75
2023/07/06 04:44:03;;;;;;;;;6.00;6.00;;;;;16.94;100.00;101492.91;5036743;28;57428;-75
2023/07/06 04:46:28;;;;;;;;;10.00;8.33;;;;;16.92;100.00;101492.00;5036585;28;45534;-75
2023/07/06 04:48:54;;;;;;;;;10.33;9.00;;;;;16.93;100.00;101497.34;5036312;28;54417;-74
2023/07/06 04:51:19;;;;;;;;;10.00;8.33;;;;;16.95;100.00;101495.56;5036972;28;61426;-75
2023/07/06 04:53:45;;;;;;;;;8.00;7.33;;;;;16.95;100.00;101495.56;5036556;28;45315;-75
2023/07/06 04:56:11;;;;;;;;;13.00;8.00;;;;;17.00;100.00;101498.22;5037367;28;45323;-75
2023/07/06 04:58:38;;;;;;;;;8.00;8.00;;;;;17.01;100.00;101505.31;5036687;28;47601;-75
2023/07/06 05:01:07;;;;;;;;;9.00;5.00;;;;;17.02;100.00;101499.97;5033110;28;45359;-75
2023/07/06 05:03:35;;;;;;;;;8.67;7.33;;;;;17.06;100.00;101508.84;5035424;28;45494;-75
2023/07/06 05:06:04;;;;;;;;;8.00;8.00;;;;;17.08;100.00;101507.06;5037167;28;45378;-75
2023/07/06 05:08:30;;;;;;;;;9.33;8.00;;;;;17.09;100.00;101503.47;5036745;28;46610;-75
2023/07/06 05:10:55;;;;;;;;;8.00;7.33;;;;;17.14;100.00;101509.69;5036827;28;45195;-75
2023/07/06 05:13:22;;;;;;;;;9.67;8.00;;;;;17.13;100.00;101507.91;5137087;22;49406;-75
2023/07/06 05:15:50;;;;;;;;;8.00;8.00;;;;;17.19;100.00;101515.00;5036931;28;45355;-75
2023/07/06 05:18:19;;;;;;;;;8.33;7.33;;;;;17.23;100.00;101512.31;5036700;28;46075;-75
2023/07/06 05:20:50;;;;;;;;;9.00;9.00;;;;;17.26;100.00;101514.97;5035593;28;45399;-75
2023/07/06 05:23:20;;;;;;;;;12.33;11.00;;;;;17.26;100.00;101508.75;5037045;28;45290;-75
2023/07/06 05:25:46;;;;;;;;;10.67;8.67;;;;;17.29;100.00;101506.06;5037136;28;45346;-75
2023/07/06 05:28:12;;;;;;;;;10.00;9.00;;;;;17.35;100.00;101516.69;5035858;28;46362;-76
2023/07/06 05:30:42;;;;;;;;;9.00;9.00;;;;;17.38;100.00;101515.81;5036549;28;45296;-75
2023/07/06 05:33:08;;;;;;;;;10.33;8.67;;;;;17.40;100.00;101514.00;5035678;28;45485;-75
2023/07/06 05:35:33;;;;;;;;;11.33;9.00;;;;;17.42;100.00;101510.44;5036246;28;61577;-75
2023/07/06 05:38:00;;;;;;;;;12.00;9.00;;;;;17.42;100.00;101507.78;5035931;28;45636;-75
2023/07/06 05:40:26;;;;;;;;;9.00;9.00;;;;;17.47;100.00;101510.38;5036688;28;45466;-75
2023/07/06 05:42:52;;;;;;;;;11.67;9.33;;;;;17.50;100.00;101507.72;5036190;28;45542;-75
2023/07/06 05:45:17;;;;;;;;;9.67;8.67;;;;;17.55;100.00;101508.56;5036773;28;45284;-75
2023/07/06 05:47:43;;;;;;;;;9.00;8.00;;;;;17.58;100.00;101507.63;5036224;28;46202;-75
2023/07/06 05:50:09;;;;;;;;;10.00;8.67;;;;;17.59;100.00;101504.09;5036224;28;45360;-78
2023/07/06 05:52:34;;;;;;;;;10.67;8.67;;;;;17.65;100.00;101512.94;5036428;28;45413;-78
2023/07/06 05:55:00;;;;;;;;;10.67;10.00;;;;;17.69;100.00;101516.50;5032422;28;45483;-76
2023/07/06 05:57:26;;;;;;;;;9.00;8.00;;;;;17.71;100.00;101512.00;5026641;28;58873;-77
2023/07/06 05:59:53;;;;;;;;;12.33;9.00;;;;;17.77;100.00;101526.22;5031632;28;45482;-75
2023/07/06 06:02:20;;;;;;;;;10.00;8.00;;;;;17.82;100.00;101518.19;5027177;28;45486;-75
2023/07/06 06:04:47;;;;;;;;;9.33;6.33;;;;;17.86;100.00;101519.06;5034299;28;45511;-75
2023/07/06 06:07:13;;;;;;;;;6.67;6.67;;;;;17.89;100.00;101513.66;5034460;28;46078;-76
2023/07/06 06:09:39;;;;;;;;;7.67;7.00;;;;;17.90;100.00;101511.00;5035805;28;45327;-76
2023/07/06 06:12:05;;;;;;;;;6.00;6.00;;;;;17.90;100.00;101510.13;5035820;28;47113;-76
2023/07/06 06:14:31;;;;;;;;;11.00;8.00;;;;;17.94;100.00;101518.06;5035230;28;45370;-77
2023/07/06 06:16:56;;;;;;;;;9.33;8.00;;;;;17.96;100.00;101516.28;5029503;28;47977;-78
2023/07/06 06:19:22;;;;;;;;;9.00;9.00;;;;;18.00;100.00;101525.16;5028996;28;45478;-78
2023/07/06 06:21:49;;;;;;;;;8.33;7.00;;;;;18.02;100.00;101524.25;5033427;28;46094;-77
2023/07/06 06:24:15;;;;;;;;;9.00;9.00;;;;;18.02;100.00;101526.03;5029807;28;45484;-77
2023/07/06 06:26:42;;;;;;;;;8.33;8.00;;;;;18.05;100.00;101531.34;5027053;28;68767;-76
2023/07/06 06:29:09;;;;;;;;;8.00;8.00;;;;;18.07;100.00;101529.56;5030664;28;45540;-75
2023/07/06 06:31:35;;;;;;;;;9.67;6.33;;;;;18.06;100.00;101528.69;5031430;28;45573;-77
2023/07/06 06:34:01;;;;;;;;;10.00;8.00;;;;;18.05;100.00;101532.22;5034008;28;45490;-77
2023/07/06 06:36:26;;;;;;;;;7.00;7.00;;;;;18.06;100.00;101533.16;5032111;28;71671;-78
2023/07/06 06:38:51;;;;;;;;;12.33;7.00;;;;;18.04;100.00;101537.59;5024652;28;45582;-77
2023/07/06 06:41:17;;;;;;;;;10.33;6.00;;;;;18.04;100.00;101530.47;5032745;28;45387;-78
2023/07/06 06:43:44;;;;;;;;;7.67;6.67;;;;;18.09;100.00;101534.88;5033442;28;61146;-77
2023/07/06 06:46:10;;;;;;;;;6.67;5.33;;;;;18.12;100.00;101538.44;5032389;28;47407;-76
2023/07/06 06:48:36;;;;;;;;;6.00;5.00;;;;;18.14;100.00;101530.38;5030722;28;45530;-75
2023/07/06 06:51:04;;;;;;;;;6.00;6.00;;;;;18.17;100.00;101531.25;5031213;28;45420;-76
2023/07/06 06:53:29;;;;;;;;;8.33;5.00;;;;;18.23;100.00;101533.88;5029456;28;45547;-76
2023/07/06 06:55:55;;;;;;;;;11.67;6.67;;;;;18.24;100.00;101530.28;5032595;28;46726;-76
2023/07/06 06:58:21;;;;;;;;;4.00;4.00;;;;;18.30;100.00;101538.25;5030843;28;45309;-76
2023/07/06 07:00:59;;;;;;;;;5.00;4.00;;;;;18.35;100.00;101537.31;5034143;28;45578;-76
2023/07/06 07:03:27;;;;;;;;;5.33;3.00;;;;;18.39;100.00;101541.75;5035753;28;45405;-77
2023/07/06 07:06:11;;;;;;;;;9.00;5.00;;;;;18.42;100.00;101547.94;5034049;28;46405;-76
2023/07/06 07:08:37;;;;;;;;;3.67;3.67;;;;;18.45;100.00;101541.69;5036550;28;45519;-77
2023/07/06 07:11:03;;;;;;;;;5.00;5.00;;;;;18.49;100.00;101546.09;5036916;28;45582;-76
2023/07/06 07:13:29;;;;;;;;;9.67;6.00;;;;;18.53;100.00;101551.38;5033787;28;45372;-76
2023/07/06 07:15:55;;;;;;;;;6.00;4.33;;;;;18.55;100.00;101549.59;5034961;28;62080;-78
2023/07/06 07:18:21;;;;;;;;;6.33;5.67;;;;;18.57;100.00;101542.44;5033019;28;45466;-76
2023/07/06 07:20:53;;;;;;;;;4.00;3.33;;;;;18.60;100.00;101538.84;5031306;28;45518;-76
2023/07/06 07:23:23;;;;;;;;;3.00;3.00;;;;;18.64;100.00;101539.69;5031533;28;45903;-76
2023/07/06 07:25:50;;;;;;;;;6.00;4.00;;;;;18.69;100.00;101541.44;5032566;28;47775;-77
2023/07/06 07:28:19;;;;;;;;;5.00;3.00;;;;;18.75;100.00;101537.81;5029490;28;45288;-76
2023/07/06 07:31:06;;;;;;;;;3.00;3.00;;;;;18.82;100.00;101540.41;5032589;28;45450;-77
2023/07/06 07:33:32;;;;;;;;;5.00;3.00;;;;;18.90;100.00;101534.06;5032150;28;45904;-80
2023/07/06 07:36:00;;;;;;;;;4.00;2.67;;;;;18.96;100.00;101534.91;5035222;28;47462;-78
2023/07/06 07:38:26;;;;;;;;;2.33;2.33;;;;;19.03;100.00;101541.06;5031871;28;45392;-77
2023/07/06 07:40:59;;;;;;;;;3.33;3.33;;;;;19.06;100.00;101523.16;5033614;28;45425;-76
2023/07/06 07:43:26;;;;;;;;;3.00;3.00;;;;;19.14;100.00;101538.25;5030889;28;45460;-78
2023/07/06 07:45:57;;;;;;;;;2.67;2.67;;;;;19.19;100.00;101528.38;5033382;28;47768;-77
2023/07/06 07:48:24;;;;;;;;;2.33;2.33;;;;;19.23;100.00;101527.38;5032764;28;45633;-77
2023/07/06 07:50:50;;;;;;;;;1.67;1.67;;;;;19.29;100.00;101530.00;5032696;28;45540;-78
2023/07/06 07:53:16;;;;;;;;;2.67;2.67;;;;;19.32;100.00;101521.91;5031179;28;45585;-78
2023/07/06 07:55:42;;;;;;;;;6.33;4.67;;;;;19.39;100.00;101528.97;5032343;28;47456;-78
2023/07/06 07:58:08;;;;;;;;;4.67;1.67;;;;;19.45;100.00;101528.00;5033517;28;45355;-76
2023/07/06 08:00:34;;;;;;;;;4.00;4.00;;;;;19.52;100.00;101519.84;5036680;28;45632;-78
2023/07/06 08:03:03;;;;;;;;;5.67;3.67;;;;;19.56;100.00;101516.22;5033674;28;45661;-77
2023/07/06 08:05:28;;;;;;;;;4.00;3.67;;;;;19.61;100.00;101509.03;5028945;28;46686;-78
2023/07/06 08:07:55;;;;;;;;;3.67;3.67;;;;;19.66;100.00;101510.75;5032397;28;45359;-79
2023/07/06 08:10:21;;;;;;;;;8.00;4.00;;;;;19.73;100.00;101510.63;5036648;28;45383;-77
2023/07/06 08:12:46;;;;;;;;;6.67;5.00;;;;;19.77;100.00;101517.72;5031918;28;46982;-78
2023/07/06 08:15:13;;;;;;;;;4.00;4.00;;;;;19.81;100.00;101508.69;5035272;28;65778;-80
2023/07/06 08:17:39;;;;;;;;;3.00;3.00;;;;;19.87;100.00;101510.41;5036275;28;45478;-77
2023/07/06 08:20:11;;;;;;;;;3.33;3.00;;;;;19.93;100.00;101514.78;5034121;28;46056;-77
2023/07/06 08:22:36;;;;;;;;;4.33;2.00;;;;;19.97;100.00;101511.13;5023764;28;46074;-77
2023/07/06 08:25:03;;;;;;;;;6.00;4.00;;;;;20.01;100.00;101494.94;5031171;28;45557;-77
2023/07/06 08:27:29;;;;;;;;;6.00;5.33;;;;;20.09;100.00;101509.13;5027632;28;45558;-77
2023/07/06 08:29:55;;;;;;;;;4.33;3.67;;;;;20.14;100.00;101503.69;5030917;28;45751;-79
2023/07/06 08:32:21;;;;;;;;;4.67;4.67;;;;;20.20;100.00;101500.00;5024275;28;45295;-77
2023/07/06 08:34:47;;;;;;;;;4.00;3.67;;;;;20.24;100.00;101499.94;5024910;28;46933;-76
2023/07/06 08:37:12;;;;;;;;;5.00;4.67;;;;;20.27;100.00;101486.44;5026495;28;45606;-77
2023/07/06 08:39:38;;;;;;;;;4.00;4.00;;;;;20.33;100.00;101491.69;5030171;28;46164;-77
2023/07/06 08:42:09;;;;;;;;;10.00;6.67;;;;;20.40;100.00;101496.03;5028282;28;45764;-77
2023/07/06 08:44:34;;;;;;;;;6.33;5.00;;;;;20.43;100.00;101492.41;5029001;28;47306;-77
2023/07/06 08:46:59;;;;;;;;;5.00;5.00;;;;;20.46;100.00;101492.41;5034853;28;57410;-80
2023/07/06 08:49:30;;;;;;;;;6.00;5.00;;;;;20.50;100.00;101488.72;5021552;28;45452;-77
2023/07/06 08:51:56;;;;;;;;;5.00;4.00;;;;;20.55;100.00;101486.81;5030288;28;46087;-77
2023/07/06 08:54:24;;;;;;;;;4.67;4.00;;;;;20.63;100.00;101487.56;5035180;28;47535;-77
2023/07/06 08:56:50;;;;;;;;;6.00;4.67;;;;;20.67;100.00;101494.66;5036076;28;45379;-77
2023/07/06 08:59:34;;;;;;;;;4.00;3.67;;;;;20.73;100.00;101496.31;5035735;28;45987;-78
2023/07/06 09:02:24;;;;;;;;;4.33;4.00;;;;;20.76;100.00;101492.69;5035973;28;45449;-79
2023/07/06 09:04:52;;;;;;;;;5.67;4.00;;;;;20.80;100.00;101497.97;5032082;28;47000;-77
2023/07/06 09:07:35;;;;;;;;;4.67;4.67;;;;;20.84;100.00;101497.00;5035829;28;45316;-77
2023/07/06 09:10:00;;;;;;;;;5.67;5.00;;;;;20.89;100.00;101492.41;5035315;28;45470;-76
2023/07/06 09:12:33;;;;;;;;;7.00;5.00;;;;;20.97;100.00;101489.53;5035911;28;45367;-77
2023/07/06 09:15:00;;;;;;;;;5.67;4.00;;;;;21.09;100.00;101500.03;5032526;28;46222;-77
2023/07/06 09:17:26;;;;;;;;;4.33;4.33;;;;;21.19;100.00;101489.94;5035273;28;45844;-77
2023/07/06 09:19:53;;;;;;;;;7.00;5.00;;;;;21.29;100.00;101502.25;5036884;28;45502;-77
2023/07/06 09:22:22;;;;;;;;;4.00;3.00;;;;;21.38;100.00;101490.47;5036238;28;45598;-77
2023/07/06 09:24:49;;;;;;;;;4.33;4.00;;;;;21.47;100.00;101489.38;5036225;28;46071;-78
2023/07/06 09:27:28;;;;;;;;;6.33;4.67;;;;;21.58;100.00;101490.88;5036880;28;45213;-77
2023/07/06 09:30:01;;;;;;;;;8.67;6.67;;;;;21.68;100.00;101488.84;5036237;28;46638;-77
2023/07/06 09:32:27;;;;;;;;;5.00;4.00;;;;;21.77;100.00;101490.41;5035589;28;45482;-77
2023/07/06 09:34:55;;;;;;;;;9.33;5.00;;;;;21.77;100.00;101485.91;5036186;28;46758;-77
2023/07/06 09:37:22;;;;;;;;;6.67;4.33;;;;;21.79;100.00;101485.91;5034735;28;45323;-78
2023/07/06 09:40:11;;;;;;;;;12.33;5.00;;;;;21.82;100.00;101486.69;5036445;28;45284;-78
2023/07/06 09:42:36;;;;;;;;;4.00;4.00;;;;;21.90;100.00;101482.03;5028790;28;45828;-77
2023/07/06 09:45:04;;;;;;;;;5.33;5.00;;;;;21.98;100.00;101481.81;5034422;28;69568;-77
2023/07/06 09:47:30;;;;;;;;;5.67;4.00;;;;;22.08;100.00;101485.16;5032707;28;45570;-76
2023/07/06 09:50:00;;;;;;;;;5.33;4.00;;;;;22.17;100.00;101484.94;5035196;28;45429;-78
2023/07/06 09:52:25;;;;;;;;;6.00;4.00;;;;;22.28;100.00;101487.34;5036306;28;45192;-78
2023/07/06 09:55:07;;;;;;;;;6.67;5.00;;;;;22.38;100.00;101486.19;5025734;28;49016;-77
2023/07/06 09:57:35;;;;;;;;;7.00;4.00;;;;;22.48;100.00;101482.31;5034188;28;45981;-76
2023/07/06 10:00:00;;;;;;;;;6.67;5.00;;;;;22.60;100.00;101479.25;5031787;28;45648;-77
2023/07/06 10:02:41;;;;;;;;;4.00;4.00;;;;;22.71;100.00;101477.13;5033107;28;45692;-76
2023/07/06 10:05:16;;;;;;;;;5.67;4.67;;;;;22.77;100.00;101478.75;5028554;28;46639;-78
2023/07/06 10:07:47;;;;;;;;;6.00;5.33;;;;;22.84;100.00;101483.03;5034477;28;45498;-78
2023/07/06 10:10:22;;;;;;;;;8.00;5.00;;;;;22.91;100.00;101481.97;5035498;28;45292;-78
2023/07/06 10:12:47;;;;;;;;;6.33;5.00;;;;;22.98;100.00;101478.16;5040218;28;45461;-77
2023/07/06 10:15:25;;;;;;;;;6.33;3.33;;;;;23.10;100.00;101468.81;5035077;28;47309;-77
2023/07/06 10:18:07;;;;;;;;;6.00;4.33;;;;;23.24;100.00;101455.81;5035044;28;45447;-78
2023/07/06 10:21:04;;;;;;;;;5.00;5.00;;;;;23.47;100.00;101455.06;5037836;28;45348;-77
2023/07/06 10:23:57;;;;;;;;;6.00;5.67;;;;;23.63;100.00;101454.59;5033549;28;45655;-75
2023/07/06 10:26:23;;;;;;;;;6.00;5.00;;;;;23.77;100.00;101455.91;5038596;28;47394;-78
2023/07/06 10:28:53;;;;;;;;;5.00;5.00;;;;;23.88;100.00;101455.53;5027419;28;45518;-77
2023/07/06 10:31:21;;;;;;;;;4.33;4.33;;;;;23.97;99.67;101447.13;5031750;28;45305;-79
2023/07/06 10:33:49;;;;;;;;;7.00;4.00;;;;;24.08;100.00;101448.56;5026204;28;45471;-77
2023/07/06 10:36:15;;;;;;;;;6.00;4.00;;;;;24.17;100.00;101456.31;5034878;28;46444;-77
2023/07/06 10:38:41;;;;;;;;;4.00;4.00;;;;;24.26;100.00;101456.88;5035558;28;45461;-78
2023/07/06 10:41:10;;;;;;;;;9.67;4.00;;;;;24.38;100.00;101450.19;5036209;28;45478;-78
2023/07/06 10:43:38;;;;;;;;;4.00;3.33;;;;;24.47;99.51;101443.56;5031003;28;45364;-77
2023/07/06 10:46:33;;;;;;;;;8.00;4.00;;;;;24.52;99.15;101453.25;5035149;28;46660;-78
2023/07/06 10:49:15;;;;;;;;;2.00;2.00;;;;;24.56;100.00;101452.22;5038154;28;45513;-78
2023/07/06 10:52:00;;;;;;;;;4.00;4.00;;;;;24.66;99.14;101449.16;5033089;28;45352;-78
2023/07/06 10:54:30;;;;;;;;;5.67;3.67;;;;;24.73;98.76;101451.56;5036394;28;45138;-74
2023/07/06 10:57:00;;;;;;;;;4.00;3.00;;;;;24.84;96.83;101456.56;5031849;28;47706;-76
2023/07/06 10:59:35;;;;;;;;;5.00;4.00;;;;;24.93;94.85;101441.81;5032687;28;45205;-75
2023/07/06 11:02:24;;;;;;;;;4.00;3.00;;;;;25.03;95.52;101440.50;5031646;28;45489;-75
2023/07/06 11:04:55;;;;;;;;;4.33;3.33;;;;;25.12;94.09;101447.41;5031586;28;45910;-75
2023/07/06 11:07:46;;;;;;;;;7.33;4.00;;;;;25.25;90.67;101451.41;5038872;28;47428;-75
2023/07/06 11:10:14;;;;;;;;;6.00;3.00;;;;;25.31;89.96;101440.34;5037297;28;45290;-75
2023/07/06 11:12:55;;;;;;;;;2.67;2.67;;;;;25.40;89.19;101436.34;5038531;28;45510;-75
2023/07/06 11:15:24;;;;;;;;;5.00;3.67;;;;;25.47;88.75;101427.06;5035923;28;45362;-76
2023/07/06 11:17:53;;;;;;;;;5.00;3.33;;;;;25.55;88.04;101431.19;5036269;28;46594;-75
2023/07/06 11:20:24;;;;;;;;;3.00;3.00;;;;;25.68;87.13;101434.28;5037541;28;45392;-75
2023/07/06 11:22:55;;;;;;;;;6.67;3.00;;;;;25.75;86.90;101429.53;5033944;28;45451;-77